Terminal Aerodrome Forecast
Issued by NWS

Home | Current Version | Previous Version | Graphics & Text | Print | Product List | Glossary On
Versions: 1 2 3 4 5 6 7 8 9 10 11 12 13 14 15 16 17 18 19 20 21 22 23 24 25 26 27 28 29 30 31 32
000
FTUS43 KLOT 211354 AAA
TAFORD
TAF AMD
KORD 211354Z 2114/2218 30012KT P6SM OVC100
     FM211515 29012G16KT P6SM SCT100
     FM220100 25008KT P6SM SCT060
     FM220800 03011KT P6SM SKC
     FM221400 07008KT P6SM SKC=

USA.gov is the U.S. government's official web portal to all federal, state and local government web resources and services.